Time;durP1;ratioP1;P1;durP2;ratioP2;P2;SDS_P1;SDS_P2;PMS_P1;PMS_P2;Temp;Humidity;BMP_temperature;BMP_pressure;BME280_temperature;BME280_humidity;BME280_pressure;Samples;Min_cycle;Max_cycle;Signal;HPM_P1;HPM_P2
2023/12/13 00:01:03;;;;;;;1.27;0.40;;;;;;;8.19;100.00;96688.41;5093983;28;20213;-72
2023/12/13 00:03:30;;;;;;;1.50;0.60;;;;;;;8.28;100.00;96687.81;5093998;28;20208;-72
2023/12/13 00:05:56;;;;;;;0.40;0.40;;;;;;;8.25;100.00;96696.25;5094022;28;20208;-72
2023/12/13 00:08:22;;;;;;;1.73;0.50;;;;;;;8.24;100.00;96691.19;5093962;28;20208;-72
2023/12/13 00:10:49;;;;;;;0.67;0.30;;;;;;;8.21;100.00;96694.28;5093769;28;20320;-72
2023/12/13 00:13:15;;;;;;;0.97;0.50;;;;;;;8.13;100.00;96692.81;5093491;28;20671;-72
2023/12/13 00:15:42;;;;;;;0.30;0.30;;;;;;;8.01;100.00;96685.97;5094568;28;20204;-72
2023/12/13 00:18:08;;;;;;;2.97;0.50;;;;;;;7.98;100.00;96681.13;5093793;28;20216;-72
2023/12/13 00:20:35;;;;;;;1.17;0.50;;;;;;;7.96;100.00;96667.34;5093272;28;20632;-72
2023/12/13 00:23:01;;;;;;;1.33;0.47;;;;;;;7.93;100.00;96671.25;5093352;28;20541;-72
2023/12/13 00:25:28;;;;;;;2.03;0.60;;;;;;;7.84;100.00;96658.63;5093361;28;20208;-72
2023/12/13 00:27:54;;;;;;;2.07;0.50;;;;;;;7.72;100.00;96657.84;5093799;28;20208;-72
2023/12/13 00:30:20;;;;;;;1.13;0.50;;;;;;;7.66;100.00;96666.72;5093739;28;20231;-72
2023/12/13 00:32:46;;;;;;;3.37;0.50;;;;;;;7.47;100.00;96660.00;5093790;28;20227;-72
2023/12/13 00:35:13;;;;;;;0.47;0.40;;;;;;;7.33;100.00;96651.50;5093779;28;20204;-72
2023/12/13 00:37:39;;;;;;;0.53;0.40;;;;;;;7.30;100.00;96653.81;5093162;28;20212;-72
2023/12/13 00:40:07;;;;;;;1.47;0.60;;;;;;;7.25;100.00;96648.41;5093410;28;20714;-72
2023/12/13 00:42:33;;;;;;;0.60;0.60;;;;;;;7.22;100.00;96646.22;5093750;28;20257;-72
2023/12/13 00:44:59;;;;;;;1.27;0.60;;;;;;;7.16;100.00;96637.41;5093468;28;20673;-72
2023/12/13 00:47:26;;;;;;;1.00;0.53;;;;;;;7.16;100.00;96639.25;5093508;28;20236;-72
2023/12/13 00:49:54;;;;;;;0.80;0.50;;;;;;;7.13;100.00;96642.34;5093522;28;20316;-72
2023/12/13 00:52:20;;;;;;;0.37;0.37;;;;;;;7.11;100.00;96632.00;5093514;28;20216;-72
2023/12/13 00:54:46;;;;;;;1.50;0.57;;;;;;;7.15;100.00;96630.50;5093219;28;20296;-72
2023/12/13 00:57:13;;;;;;;1.73;0.70;;;;;;;7.19;100.00;96639.56;5093605;28;20206;-72
2023/12/13 00:59:39;;;;;;;1.30;0.70;;;;;;;7.16;100.00;96631.31;5093176;28;20225;-72
2023/12/13 01:02:07;;;;;;;2.37;0.70;;;;;;;7.18;100.00;96635.31;5093538;28;20203;-72
2023/12/13 01:04:34;;;;;;;3.17;0.77;;;;;;;7.28;100.00;96647.97;5093535;28;20203;-72
2023/12/13 01:07:01;;;;;;;1.17;0.63;;;;;;;7.28;100.00;96654.03;5093212;28;20332;-72
2023/12/13 01:09:28;;;;;;;4.37;0.73;;;;;;;7.22;100.00;96651.50;5093402;28;20227;-72
2023/12/13 01:11:54;;;;;;;0.80;0.50;;;;;;;7.31;100.00;96647.47;5093375;28;20223;-72
2023/12/13 01:14:20;;;;;;;0.87;0.50;;;;;;;7.34;100.00;96649.66;5093471;28;20244;-72
2023/12/13 01:16:47;;;;;;;1.20;0.60;;;;;;;7.37;100.00;96647.34;5093404;28;20206;-72
2023/12/13 01:19:14;;;;;;;3.03;0.60;;;;;;;7.39;100.00;96642.66;5093294;28;20232;-72
2023/12/13 01:21:40;;;;;;;1.07;0.60;;;;;;;7.35;100.00;96646.00;5093371;28;20234;-72
2023/12/13 01:24:06;;;;;;;1.23;0.63;;;;;;;7.30;100.00;96640.59;5093338;28;20204;-72
2023/12/13 01:26:33;;;;;;;0.83;0.70;;;;;;;7.30;100.00;96649.34;5093293;28;20204;-72
2023/12/13 01:28:59;;;;;;;1.27;0.67;;;;;;;7.26;100.00;96647.38;5093236;28;20235;-72
2023/12/13 01:31:25;;;;;;;1.50;0.57;;;;;;;7.16;100.00;96650.63;5093141;28;20231;-72
2023/12/13 01:33:52;;;;;;;1.60;0.50;;;;;;;7.20;100.00;96646.47;5093212;28;20204;-72
2023/12/13 01:36:18;;;;;;;4.10;0.80;;;;;;;7.21;100.00;96637.50;5093211;28;20200;-72
2023/12/13 01:38:44;;;;;;;3.60;0.50;;;;;;;7.22;100.00;96643.59;5092817;28;20584;-72
2023/12/13 01:41:11;;;;;;;1.63;0.70;;;;;;;7.24;100.00;96634.38;5093139;28;20568;-72
2023/12/13 01:43:37;;;;;;;1.87;0.60;;;;;;;7.36;100.00;96631.72;5093195;28;20211;-72
2023/12/13 01:46:04;;;;;;;2.37;0.83;;;;;;;7.38;100.00;96629.66;5093148;28;20204;-72
2023/12/13 01:48:31;;;;;;;2.30;0.70;;;;;;;7.40;100.00;96632.88;5095405;28;20212;-72
2023/12/13 01:50:58;;;;;;;1.23;0.63;;;;;;;7.42;100.00;96636.09;5096288;28;20597;-72
2023/12/13 01:53:25;;;;;;;1.60;0.70;;;;;;;7.44;100.00;96639.31;5078531;28;20212;-72
2023/12/13 01:55:54;;;;;;;5.07;0.80;;;;;;;7.45;100.00;96636.44;5096436;28;20564;-72
2023/12/13 01:58:20;;;;;;;2.67;0.80;;;;;;;7.51;100.00;96627.56;5096371;28;20209;-72
2023/12/13 02:00:47;;;;;;;1.97;0.70;;;;;;;7.54;100.00;96631.56;5096584;28;20220;-72
2023/12/13 02:03:15;;;;;;;1.13;0.50;;;;;;;7.60;100.00;96631.44;5097636;28;20200;-72
2023/12/13 02:05:43;;;;;;;3.47;0.70;;;;;;;7.51;100.00;96629.41;5078610;28;20208;-72
2023/12/13 02:08:10;;;;;;;1.67;0.80;;;;;;;7.54;100.00;96627.09;5096411;28;20214;-72
2023/12/13 02:10:36;;;;;;;4.47;0.60;;;;;;;7.47;100.00;96621.13;5096523;28;20226;-72
2023/12/13 02:13:03;;;;;;;0.67;0.50;;;;;;;7.43;100.00;96619.97;5096031;28;20695;-72
2023/12/13 02:15:34;;;;;;;1.27;0.40;;;;;;;7.36;100.00;96619.31;5096023;28;20687;-72
2023/12/13 02:18:01;;;;;;;1.77;0.70;;;;;;;7.31;100.00;96626.34;5079663;28;20273;-72
2023/12/13 02:20:27;;;;;;;3.80;0.73;;;;;;;7.37;100.00;96617.50;5097101;28;20236;-72
2023/12/13 02:22:54;;;;;;;1.07;0.50;;;;;;;7.30;100.00;96620.25;5096192;28;20204;-72
2023/12/13 02:25:30;;;;;;;2.07;0.60;;;;;;;7.21;100.00;96607.63;5095839;28;20565;-72
2023/12/13 02:27:56;;;;;;;2.73;0.67;;;;;;;7.12;100.00;96603.75;5096186;28;20550;-72
2023/12/13 02:30:24;;;;;;;1.17;0.50;;;;;;;7.17;100.00;96603.84;5095995;28;20224;-72
2023/12/13 02:32:50;;;;;;;2.27;0.63;;;;;;;7.10;100.00;96606.59;5095983;28;20219;-72
2023/12/13 02:35:17;;;;;;;3.93;0.80;;;;;;;7.04;100.00;96604.91;5095903;28;20215;-72
2023/12/13 02:37:48;;;;;;;1.60;0.53;;;;;;;7.05;100.00;96603.03;5095960;28;20199;-72
2023/12/13 02:40:18;;;;;;;1.33;0.40;;;;;;;7.03;100.00;96605.13;5096516;28;20230;-72
2023/12/13 02:42:45;;;;;;;1.43;0.60;;;;;;;6.98;100.00;96605.03;5095582;28;20219;-72
2023/12/13 02:45:13;;;;;;;2.30;0.70;;;;;;;6.94;100.00;96596.75;5095790;28;20262;-72
2023/12/13 02:47:42;;;;;;;3.50;0.90;;;;;;;7.00;100.00;96597.66;5095210;28;20675;-72
2023/12/13 02:50:12;;;;;;;1.27;0.70;;;;;;;7.04;100.00;96596.97;5095606;28;20227;-72
2023/12/13 02:52:39;;;;;;;1.50;0.60;;;;;;;7.07;100.00;96593.06;5095564;28;20212;-72
2023/12/13 02:55:07;;;;;;;3.33;0.50;;;;;;;7.17;100.00;96603.84;5095271;28;20666;-72
2023/12/13 02:57:33;;;;;;;3.30;0.70;;;;;;;7.19;100.00;96597.28;5095233;28;20571;-72
2023/12/13 02:59:58;;;;;;;1.47;0.60;;;;;;;7.19;100.00;96596.50;5094890;28;20234;-72
2023/12/13 03:02:26;;;;;;;0.97;0.70;;;;;;;7.20;100.00;96596.25;5095437;28;20204;-72
2023/12/13 03:04:52;;;;;;;3.73;0.60;;;;;;;7.24;100.00;96591.31;5095063;28;20572;-72
2023/12/13 03:07:19;;;;;;;0.77;0.50;;;;;;;7.27;100.00;96596.13;5095348;28;20199;-72
2023/12/13 03:09:46;;;;;;;1.97;0.50;;;;;;;7.26;100.00;96597.97;5095218;28;20219;-72
2023/12/13 03:12:12;;;;;;;1.33;0.57;;;;;;;7.21;100.00;96600.53;5095171;28;20228;-72
2023/12/13 03:14:38;;;;;;;4.83;0.70;;;;;;;7.29;100.00;96605.41;5095209;28;20321;-72
2023/12/13 03:17:05;;;;;;;2.53;0.60;;;;;;;7.39;100.00;96610.13;5095154;28;20210;-72
2023/12/13 03:19:31;;;;;;;3.30;0.60;;;;;;;7.44;100.00;96618.16;5095044;28;20224;-72
2023/12/13 03:21:58;;;;;;;2.40;0.70;;;;;;;7.50;100.00;96630.44;5095019;28;20200;-72
2023/12/13 03:24:24;;;;;;;4.10;0.77;;;;;;;7.48;100.00;96629.88;5094971;28;20200;-72
2023/12/13 03:26:50;;;;;;;2.43;0.60;;;;;;;7.52;100.00;96623.09;5094951;28;20206;-72
2023/12/13 03:29:17;;;;;;;2.57;0.60;;;;;;;7.68;100.00;96625.78;5094840;28;20231;-72
2023/12/13 03:31:44;;;;;;;2.43;0.80;;;;;;;7.68;100.00;96619.69;5094765;28;20223;-72
2023/12/13 03:34:11;;;;;;;3.40;0.70;;;;;;;7.64;100.00;96606.13;5094655;28;20208;-72
2023/12/13 03:36:37;;;;;;;1.87;0.70;;;;;;;7.56;100.00;96608.34;5094708;28;20199;-72
2023/12/13 03:39:04;;;;;;;2.47;0.80;;;;;;;7.59;100.00;96599.94;5094835;28;20228;-72
2023/12/13 03:41:30;;;;;;;4.57;1.00;;;;;;;7.65;100.00;96599.00;5094180;28;20689;-72
2023/12/13 03:43:57;;;;;;;2.30;0.90;;;;;;;7.59;100.00;96598.09;5094229;28;20215;-72
2023/12/13 03:46:23;;;;;;;2.80;0.80;;;;;;;7.54;100.00;96590.06;5094457;28;20234;-72
2023/12/13 03:48:50;;;;;;;3.33;1.07;;;;;;;7.50;100.00;96588.13;5094064;28;20262;-72
2023/12/13 03:51:16;;;;;;;3.83;0.90;;;;;;;7.47;100.00;96572.75;5094147;28;20666;-72
2023/12/13 03:53:42;;;;;;;4.27;1.10;;;;;;;7.37;100.00;96583.13;5094384;28;20246;-72
2023/12/13 03:56:10;;;;;;;2.33;1.10;;;;;;;7.21;100.00;96579.38;5094477;28;20291;-72
2023/12/13 03:58:37;;;;;;;3.27;0.80;;;;;;;7.11;100.00;96567.78;5093782;28;20564;-72
2023/12/13 04:01:03;;;;;;;2.00;0.90;;;;;;;7.10;100.00;96563.53;5093724;28;20667;-72
2023/12/13 04:03:30;;;;;;;6.00;1.23;;;;;;;6.99;100.00;96548.50;5093987;28;20200;-72
2023/12/13 04:05:56;;;;;;;1.70;0.80;;;;;;;6.92;100.00;96556.56;5093801;28;20208;-72
2023/12/13 04:08:23;;;;;;;4.27;0.87;;;;;;;6.88;100.00;96547.47;5093753;28;20207;-72
2023/12/13 04:10:49;;;;;;;3.87;0.90;;;;;;;6.76;100.00;96544.06;5092963;28;20221;-72
2023/12/13 04:13:16;;;;;;;2.77;0.70;;;;;;;6.82;100.00;96552.88;5093843;28;20232;-72
2023/12/13 04:15:43;;;;;;;3.10;0.80;;;;;;;6.78;100.00;96552.56;5093936;28;20204;-72
2023/12/13 04:18:09;;;;;;;2.10;0.80;;;;;;;6.73;100.00;96555.09;5093954;28;20207;-72
2023/12/13 04:20:35;;;;;;;4.20;0.80;;;;;;;6.62;100.00;96563.00;5093622;28;20231;-72
2023/12/13 04:23:02;;;;;;;3.90;1.00;;;;;;;6.66;100.00;96553.59;5093515;28;20196;-72
2023/12/13 04:25:28;;;;;;;3.30;1.10;;;;;;;6.67;100.00;96547.28;5093500;28;20205;-72
2023/12/13 04:27:54;;;;;;;3.53;0.87;;;;;;;6.68;100.00;96540.97;5093404;28;20204;-72
2023/12/13 04:30:21;;;;;;;4.30;1.17;;;;;;;6.67;100.00;96542.00;5093225;28;20242;-72
2023/12/13 04:32:47;;;;;;;3.30;1.10;;;;;;;6.67;100.00;96528.78;5093231;28;20234;-72
2023/12/13 04:35:14;;;;;;;1.93;0.90;;;;;;;6.68;100.00;96533.84;5093391;28;20200;-72
2023/12/13 04:37:40;;;;;;;3.57;1.10;;;;;;;6.72;100.00;96531.53;5093281;28;20207;-72
2023/12/13 04:40:07;;;;;;;2.77;0.73;;;;;;;6.69;100.00;96532.81;5093280;28;20310;-72
2023/12/13 04:42:35;;;;;;;2.30;0.83;;;;;;;6.69;100.00;96532.81;5093263;28;20202;-72
2023/12/13 04:45:01;;;;;;;2.67;0.70;;;;;;;6.71;100.00;96535.22;5093366;28;20284;-72
2023/12/13 04:47:27;;;;;;;0.97;0.67;;;;;;;6.70;100.00;96533.63;5093398;28;20222;-72
2023/12/13 04:49:54;;;;;;;7.23;1.10;;;;;;;6.69;100.00;96535.44;5093510;28;20223;-72
2023/12/13 04:52:20;;;;;;;4.23;1.00;;;;;;;6.72;100.00;96529.72;5093409;28;20228;-72
2023/12/13 04:54:46;;;;;;;2.77;0.93;;;;;;;6.67;100.00;96516.41;5093497;28;20200;-72
2023/12/13 04:57:13;;;;;;;1.83;1.10;;;;;;;6.67;100.00;96523.50;5093500;28;20207;-72
2023/12/13 04:59:39;;;;;;;3.07;1.03;;;;;;;6.61;100.00;96508.59;5093347;28;20219;-72
2023/12/13 05:02:06;;;;;;;3.50;1.27;;;;;;;6.62;100.00;96515.50;5092877;28;20220;-73
2023/12/13 05:04:32;;;;;;;3.07;1.47;;;;;;;6.60;100.00;96512.28;5093370;28;20210;-73
2023/12/13 05:06:59;;;;;;;2.07;1.20;;;;;;;6.67;100.00;96494.47;5093225;28;20216;-73
2023/12/13 05:09:25;;;;;;;4.30;1.20;;;;;;;6.67;100.00;96497.13;5092786;28;20225;-73
2023/12/13 05:11:51;;;;;;;3.87;1.20;;;;;;;6.60;100.00;96502.50;5093701;28;20226;-73
2023/12/13 05:14:18;;;;;;;2.63;1.20;;;;;;;6.61;100.00;96498.84;5092821;28;20569;-73
2023/12/13 05:16:44;;;;;;;1.43;0.90;;;;;;;6.63;100.00;96514.44;5092299;28;20207;-73
2023/12/13 05:19:10;;;;;;;5.50;1.20;;;;;;;6.65;100.00;96499.19;5092256;28;20224;-73
2023/12/13 05:21:37;;;;;;;2.73;1.03;;;;;;;6.68;100.00;96499.53;5093051;28;20542;-73
2023/12/13 05:24:03;;;;;;;2.07;0.90;;;;;;;6.65;100.00;96504.47;5096695;28;20251;-73
2023/12/13 05:26:30;;;;;;;2.70;0.77;;;;;;;6.69;100.00;96500.34;5096802;28;20208;-73
2023/12/13 05:28:56;;;;;;;2.03;0.60;;;;;;;6.75;100.00;96497.53;5096750;28;20228;-73
2023/12/13 05:31:24;;;;;;;1.93;0.67;;;;;;;6.71;100.00;96491.16;5096777;28;20204;-73
2023/12/13 05:33:50;;;;;;;1.47;0.70;;;;;;;6.72;100.00;96492.75;5096564;28;20620;-73
2023/12/13 05:36:17;;;;;;;1.67;0.50;;;;;;;6.81;100.00;96483.44;5096917;28;20212;-73
2023/12/13 05:38:44;;;;;;;1.50;0.60;;;;;;;6.86;100.00;96480.88;5096702;28;20211;-73
2023/12/13 05:41:10;;;;;;;1.23;0.60;;;;;;;6.89;100.00;96484.91;5096720;28;20204;-73
2023/12/13 05:43:37;;;;;;;0.87;0.70;;;;;;;6.90;100.00;96483.84;5096455;28;20208;-73
2023/12/13 05:46:04;;;;;;;2.03;0.60;;;;;;;6.93;100.00;96483.41;5096479;28;20204;-73
2023/12/13 05:48:31;;;;;;;2.47;0.70;;;;;;;7.02;100.00;96489.94;5095863;28;20678;-73
2023/12/13 05:50:58;;;;;;;0.80;0.50;;;;;;;7.08;100.00;96488.97;5096370;28;20281;-73
2023/12/13 05:53:24;;;;;;;1.13;0.43;;;;;;;7.04;100.00;96477.28;5096089;28;20224;-73
2023/12/13 05:55:51;;;;;;;2.00;0.53;;;;;;;7.03;100.00;96488.88;5096190;28;20210;-73
2023/12/13 05:58:18;;;;;;;0.97;0.50;;;;;;;7.03;100.00;96471.19;5095852;28;20204;-73
2023/12/13 06:00:44;;;;;;;0.50;0.50;;;;;;;7.02;100.00;96469.56;5096137;28;20699;-73
2023/12/13 06:03:11;;;;;;;0.83;0.60;;;;;;;7.03;100.00;96471.19;5095752;28;20625;-73
2023/12/13 06:05:37;;;;;;;1.93;0.80;;;;;;;7.10;100.00;96471.06;5095703;28;20688;-73
2023/12/13 06:08:04;;;;;;;1.43;0.63;;;;;;;7.07;100.00;96474.16;5095953;28;20291;-73
2023/12/13 06:10:30;;;;;;;0.93;0.63;;;;;;;7.06;100.00;96481.28;5096876;28;20562;-73
2023/12/13 06:12:57;;;;;;;4.50;0.97;;;;;;;7.12;100.00;96483.00;5095675;28;20721;-73
2023/12/13 06:15:23;;;;;;;0.50;0.50;;;;;;;7.19;100.00;96481.00;5095778;28;20214;-73
2023/12/13 06:17:50;;;;;;;1.80;0.50;;;;;;;7.27;100.00;96477.19;5095924;28;20210;-73
2023/12/13 06:20:16;;;;;;;1.63;0.60;;;;;;;7.35;100.00;96474.97;5094913;28;20228;-73
2023/12/13 06:22:43;;;;;;;1.00;0.60;;;;;;;7.48;100.00;96479.97;5095858;28;20200;-73
2023/12/13 06:25:09;;;;;;;0.73;0.53;;;;;;;7.51;100.00;96471.56;5095974;28;20210;-73
2023/12/13 06:27:35;;;;;;;0.40;0.40;;;;;;;7.55;100.00;96479.84;5094886;28;20219;-73
2023/12/13 06:30:02;;;;;;;0.93;0.60;;;;;;;7.56;100.00;96476.94;5095493;28;20219;-74
2023/12/13 06:32:28;;;;;;;1.77;0.73;;;;;;;7.61;100.00;96473.59;5095198;28;20234;-73
2023/12/13 06:34:55;;;;;;;0.80;0.53;;;;;;;7.55;100.00;96472.69;5094479;28;20211;-73
2023/12/13 06:37:21;;;;;;;2.53;0.80;;;;;;;7.57;100.00;96469.81;5095213;28;20206;-73
2023/12/13 06:39:49;;;;;;;0.93;0.63;;;;;;;7.59;100.00;96470.34;5095405;28;20230;-73
2023/12/13 06:42:15;;;;;;;3.10;0.67;;;;;;;7.57;100.00;96472.47;5094915;28;20291;-73
2023/12/13 06:44:42;;;;;;;1.40;0.60;;;;;;;7.57;100.00;96465.34;5095197;28;20666;-73
2023/12/13 06:47:08;;;;;;;2.70;0.77;;;;;;;7.62;100.00;96460.13;5094761;28;20700;-73
2023/12/13 06:49:34;;;;;;;0.73;0.60;;;;;;;7.64;100.00;96458.03;5094664;28;20702;-73
2023/12/13 06:52:02;;;;;;;2.80;0.90;;;;;;;7.65;100.00;96453.56;5094981;28;20619;-73
2023/12/13 06:54:28;;;;;;;1.90;0.80;;;;;;;7.67;100.00;96447.00;5095223;28;20223;-73
2023/12/13 06:56:56;;;;;;;0.90;0.50;;;;;;;7.62;100.00;96454.03;5095696;28;20553;-73
2023/12/13 06:59:22;;;;;;;2.27;0.90;;;;;;;7.69;100.00;96452.03;5095034;28;20220;-73
2023/12/13 07:01:48;;;;;;;1.93;0.90;;;;;;;7.66;100.00;96448.03;5095106;28;20199;-73
2023/12/13 07:04:15;;;;;;;1.43;0.70;;;;;;;7.65;100.00;96459.63;5094598;28;20200;-73
2023/12/13 07:06:42;;;;;;;1.03;0.67;;;;;;;7.70;100.00;96456.28;5095675;28;20199;-73
2023/12/13 07:09:10;;;;;;;2.37;0.97;;;;;;;7.73;100.00;96453.16;5094304;28;20224;-73
2023/12/13 07:11:37;;;;;;;4.73;0.90;;;;;;;7.72;100.00;96454.19;5094656;28;20298;-73
2023/12/13 07:14:03;;;;;;;1.00;0.80;;;;;;;7.67;100.00;96451.47;5094306;28;20224;-73
2023/12/13 07:16:29;;;;;;;3.07;0.87;;;;;;;7.72;100.00;96448.91;5094829;28;20204;-73
2023/12/13 07:18:56;;;;;;;2.73;0.77;;;;;;;7.74;100.00;96452.13;5094623;28;20247;-73
2023/12/13 07:21:23;;;;;;;2.03;0.90;;;;;;;7.72;100.00;96448.91;5094521;28;20613;-74
2023/12/13 07:23:49;;;;;;;2.23;0.80;;;;;;;7.71;100.00;96442.81;5094250;28;20204;-74
2023/12/13 07:26:16;;;;;;;4.00;0.90;;;;;;;7.70;100.00;96443.84;5094102;28;20212;-73
2023/12/13 07:28:43;;;;;;;4.57;0.90;;;;;;;7.71;100.00;96442.81;5094058;28;20211;-74
2023/12/13 07:31:10;;;;;;;2.70;0.90;;;;;;;7.66;100.00;96439.28;5094200;28;20206;-73
2023/12/13 07:33:38;;;;;;;1.67;0.70;;;;;;;7.66;100.00;96444.56;5094314;28;20228;-73
2023/12/13 07:36:05;;;;;;;1.70;0.83;;;;;;;7.72;100.00;96448.91;5094267;28;20204;-73
2023/12/13 07:38:31;;;;;;;0.93;0.93;;;;;;;7.70;100.00;96443.06;5094343;28;20203;-73
2023/12/13 07:40:57;;;;;;;1.53;1.13;;;;;;;7.78;100.00;96446.09;5093885;28;20222;-73
2023/12/13 07:43:24;;;;;;;1.97;1.07;;;;;;;7.81;100.00;96439.53;5093990;28;20209;-73
2023/12/13 07:45:51;;;;;;;2.07;1.00;;;;;;;7.79;100.00;96436.34;5094049;28;20302;-73
2023/12/13 07:48:21;;;;;;;1.87;1.30;;;;;;;7.78;100.00;96434.75;5093782;28;20216;-73
2023/12/13 07:50:48;;;;;;;2.40;1.00;;;;;;;7.78;100.00;96438.16;5094802;28;20232;-73
2023/12/13 07:53:15;;;;;;;1.63;0.90;;;;;;;7.84;100.00;96447.81;5093798;28;20311;-73
2023/12/13 07:55:41;;;;;;;2.93;0.90;;;;;;;7.83;100.00;96442.75;5092641;28;20562;-74
2023/12/13 07:58:08;;;;;;;0.93;0.80;;;;;;;7.84;100.00;96437.22;5093815;28;20202;-73
2023/12/13 08:00:35;;;;;;;2.57;0.83;;;;;;;7.85;100.00;96443.31;5093184;28;20220;-73
2023/12/13 08:03:02;;;;;;;0.80;0.53;;;;;;;7.93;100.00;96434.97;5093376;28;20206;-73
2023/12/13 08:05:29;;;;;;;3.57;0.60;;;;;;;7.89;100.00;96444.44;5093904;28;20261;-73
2023/12/13 08:07:55;;;;;;;4.90;0.80;;;;;;;7.88;100.00;96448.13;5093719;28;20229;-73
2023/12/13 08:10:21;;;;;;;2.07;0.90;;;;;;;7.83;100.00;96450.69;5093766;28;20224;-73
2023/12/13 08:12:48;;;;;;;3.97;1.00;;;;;;;7.83;100.00;96455.97;5093447;28;20206;-73
2023/12/13 08:15:14;;;;;;;1.70;0.70;;;;;;;7.88;100.00;96451.53;5093698;28;20204;-73
2023/12/13 08:17:41;;;;;;;0.97;0.70;;;;;;;7.77;100.00;96448.97;5093354;28;20545;-73
2023/12/13 08:20:08;;;;;;;2.47;0.93;;;;;;;7.76;100.00;96447.38;5093207;28;20718;-73
2023/12/13 08:22:34;;;;;;;5.20;0.90;;;;;;;7.78;100.00;96446.09;5093436;28;20215;-73
2023/12/13 08:25:01;;;;;;;1.90;0.70;;;;;;;7.80;100.00;96443.22;5093679;28;20216;-73
2023/12/13 08:27:28;;;;;;;1.60;0.80;;;;;;;7.79;100.00;96444.28;5093517;28;20419;-73
2023/12/13 08:29:54;;;;;;;1.80;0.90;;;;;;;7.78;100.00;96438.16;5093482;28;20226;-73
2023/12/13 08:32:20;;;;;;;3.37;0.80;;;;;;;7.77;100.00;96438.41;5093221;28;20207;-73
2023/12/13 08:34:48;;;;;;;2.57;0.90;;;;;;;7.80;100.00;96445.88;5093239;28;20231;-73
2023/12/13 08:37:14;;;;;;;2.53;0.63;;;;;;;7.80;100.00;96436.09;5093367;28;20247;-73
2023/12/13 08:39:41;;;;;;;2.77;0.97;;;;;;;7.87;100.00;96441.22;5093784;28;20589;-73
2023/12/13 08:42:09;;;;;;;1.57;1.00;;;;;;;7.88;100.00;96445.47;5093123;28;20218;-73
2023/12/13 08:44:35;;;;;;;2.10;0.60;;;;;;;7.91;100.00;96434.38;5093906;28;20201;-73
2023/12/13 08:47:02;;;;;;;1.40;0.70;;;;;;;7.92;100.00;96444.75;5092877;28;20206;-73
2023/12/13 08:49:28;;;;;;;1.20;0.70;;;;;;;7.97;100.00;96433.44;5093191;28;20230;-73
2023/12/13 08:51:55;;;;;;;0.93;0.60;;;;;;;7.99;100.00;96434.00;5093283;28;20208;-73
2023/12/13 08:54:21;;;;;;;1.03;0.70;;;;;;;7.99;100.00;96434.81;5093136;28;20217;-73
2023/12/13 08:56:48;;;;;;;1.57;0.90;;;;;;;8.02;100.00;96426.41;5093498;28;20571;-73
2023/12/13 08:59:15;;;;;;;2.27;0.80;;;;;;;7.99;100.00;96434.00;5097053;28;20710;-73
2023/12/13 09:01:42;;;;;;;2.10;1.00;;;;;;;7.95;100.00;96438.16;5097080;28;20672;-73
2023/12/13 09:04:08;;;;;;;1.10;0.80;;;;;;;8.02;100.00;96425.59;5097030;28;20211;-73
2023/12/13 09:06:34;;;;;;;2.17;0.80;;;;;;;8.17;100.00;96431.91;5097152;28;20203;-73
2023/12/13 09:09:03;;;;;;;3.60;0.80;;;;;;;8.31;100.00;96432.38;5097044;28;20227;-73
2023/12/13 09:11:30;;;;;;;1.27;0.83;;;;;;;8.48;100.00;96430.50;5097119;28;20207;-73
2023/12/13 09:13:58;;;;;;;2.53;1.00;;;;;;;8.55;100.00;96439.09;5097685;28;20224;-73
2023/12/13 09:16:24;;;;;;;1.27;0.77;;;;;;;8.60;100.00;96433.84;5097143;28;20231;-73
2023/12/13 09:18:50;;;;;;;2.37;0.70;;;;;;;8.66;100.00;96440.81;5097208;28;20227;-73
2023/12/13 09:21:17;;;;;;;2.37;1.00;;;;;;;8.64;100.00;96437.63;5096830;28;20599;-73
2023/12/13 09:23:43;;;;;;;1.93;0.73;;;;;;;8.68;100.00;96433.41;5097001;28;20200;-73
2023/12/13 09:26:13;;;;;;;3.87;0.83;;;;;;;8.64;100.00;96442.91;5096434;28;20204;-74
2023/12/13 09:28:39;;;;;;;1.90;0.80;;;;;;;8.68;100.00;96439.50;5097772;28;20576;-74
2023/12/13 09:31:07;;;;;;;2.03;0.70;;;;;;;8.65;100.00;96436.56;5096704;28;20206;-74
2023/12/13 09:33:34;;;;;;;2.30;0.80;;;;;;;8.71;100.00;96444.31;5096863;28;20223;-74
2023/12/13 09:36:00;;;;;;;2.13;1.00;;;;;;;8.72;100.00;96445.94;5096598;28;20203;-74
2023/12/13 09:38:26;;;;;;;1.20;0.83;;;;;;;8.80;100.00;96453.44;5096489;28;20204;-74
2023/12/13 09:40:53;;;;;;;2.60;1.00;;;;;;;8.88;100.00;96449.56;5096499;28;20227;-74
2023/12/13 09:43:20;;;;;;;2.40;1.17;;;;;;;8.96;100.00;96455.22;5096055;28;20210;-74
2023/12/13 09:45:51;;;;;;;2.77;1.07;;;;;;;9.07;100.00;96456.97;5096314;28;20200;-74
2023/12/13 09:48:21;;;;;;;4.80;1.20;;;;;;;9.11;100.00;96460.72;5096196;28;20211;-74
2023/12/13 09:50:54;;;;;;;2.20;1.30;;;;;;;9.13;100.00;96473.69;5096471;28;20234;-74
2023/12/13 09:53:25;;;;;;;2.67;0.90;;;;;;;9.10;100.00;96469.69;5096039;28;20688;-75
2023/12/13 09:55:54;;;;;;;3.90;0.97;;;;;;;9.06;100.00;96470.44;5096431;28;20208;-74
2023/12/13 09:58:20;;;;;;;3.63;1.00;;;;;;;9.03;100.00;96477.06;5096240;28;20214;-74
2023/12/13 10:00:47;;;;;;;2.70;1.00;;;;;;;8.99;100.00;96467.19;5095910;28;20232;-74
2023/12/13 10:03:13;;;;;;;2.57;0.70;;;;;;;9.07;100.00;96483.47;5096294;28;20207;-74
2023/12/13 10:05:43;;;;;;;2.67;0.80;;;;;;;8.98;100.00;96474.34;5095800;28;20662;-74
2023/12/13 10:08:11;;;;;;;2.00;0.87;;;;;;;8.98;100.00;96476.19;5095517;28;20224;-74
2023/12/13 10:10:38;;;;;;;2.60;0.80;;;;;;;9.00;100.00;96474.88;5095148;28;20235;-74
2023/12/13 10:13:06;;;;;;;4.43;1.03;;;;;;;8.92;100.00;96477.97;5095790;28;20207;-74
2023/12/13 10:15:33;;;;;;;2.57;0.80;;;;;;;8.97;100.00;96474.59;5095670;28;20697;-74
2023/12/13 10:18:01;;;;;;;1.67;0.80;;;;;;;8.96;100.00;96473.00;5095715;28;20682;-74
2023/12/13 10:20:27;;;;;;;2.83;0.90;;;;;;;8.96;100.00;96463.16;5095575;28;20223;-74
2023/12/13 10:22:54;;;;;;;3.67;0.80;;;;;;;9.03;100.00;96465.63;5095542;28;20669;-74
2023/12/13 10:25:22;;;;;;;3.17;0.80;;;;;;;9.01;100.00;96465.09;5096038;28;20200;-74
2023/12/13 10:27:49;;;;;;;2.40;0.63;;;;;;;9.06;100.00;96465.16;5095964;28;20207;-74
2023/12/13 10:30:16;;;;;;;2.33;0.90;;;;;;;9.12;100.00;96464.16;5095095;28;20598;-74
2023/12/13 10:32:42;;;;;;;2.43;0.87;;;;;;;9.09;100.00;96465.44;5095442;28;20670;-74
2023/12/13 10:35:09;;;;;;;3.67;1.00;;;;;;;9.09;100.00;96469.97;5095298;28;20728;-74
2023/12/13 10:37:36;;;;;;;0.93;0.60;;;;;;;9.15;100.00;96466.31;5095299;28;20200;-74
2023/12/13 10:40:04;;;;;;;2.23;0.70;;;;;;;9.17;100.00;96459.72;5095392;28;20239;-74
2023/12/13 10:42:31;;;;;;;2.20;0.70;;;;;;;9.22;100.00;96449.16;5095973;28;20207;-74
2023/12/13 10:44:57;;;;;;;1.87;0.80;;;;;;;9.26;100.00;96449.47;5095288;28;20207;-74
2023/12/13 10:47:25;;;;;;;4.10;0.73;;;;;;;9.17;100.00;96443.81;5095149;28;20219;-74
2023/12/13 10:49:58;;;;;;;1.67;0.90;;;;;;;9.16;100.00;96441.41;5094877;28;20277;-74
2023/12/13 10:52:27;;;;;;;2.20;0.90;;;;;;;9.29;100.00;96444.47;5095219;28;20212;-74
2023/12/13 10:54:54;;;;;;;1.60;0.80;;;;;;;9.49;100.00;96441.19;5095094;28;20223;-74
2023/12/13 10:57:21;;;;;;;3.17;1.00;;;;;;;9.71;100.00;96436.63;5094501;28;20200;-74
2023/12/13 10:59:48;;;;;;;1.50;0.80;;;;;;;9.62;100.00;96443.44;5094560;28;20251;-74
2023/12/13 11:02:18;;;;;;;1.97;0.83;;;;;;;9.64;100.00;96438.72;5094744;28;20639;-74
2023/12/13 11:04:46;;;;;;;1.53;0.87;;;;;;;9.66;100.00;96441.91;5094795;28;20234;-74
2023/12/13 11:07:12;;;;;;;4.77;0.97;;;;;;;9.76;100.00;96452.59;5095079;28;20206;-74
2023/12/13 11:09:57;;;;;;;3.40;1.00;;;;;;;9.94;100.00;96446.91;5094732;28;20575;-74
2023/12/13 11:12:24;;;;;;;2.30;0.90;;;;;;;10.02;100.00;96446.44;5094610;28;20192;-74
2023/12/13 11:14:52;;;;;;;2.13;0.90;;;;;;;10.11;100.00;96444.97;5094567;28;20223;-74
2023/12/13 11:17:20;;;;;;;2.30;0.90;;;;;;;10.28;100.00;96442.97;5094295;28;20207;-74
2023/12/13 11:19:47;;;;;;;1.23;0.80;;;;;;;10.35;100.00;96446.19;5093755;28;20323;-74
2023/12/13 11:22:14;;;;;;;2.47;0.90;;;;;;;10.42;100.00;96441.47;5094540;28;20252;-76
2023/12/13 11:24:41;;;;;;;2.10;0.70;;;;;;;10.36;100.00;96443.28;5094522;28;20205;-76
2023/12/13 11:27:13;;;;;;;1.70;1.00;;;;;;;10.47;100.00;96447.59;5094422;28;20211;-76
2023/12/13 11:29:45;;;;;;;2.40;0.90;;;;;;;10.32;100.00;96449.38;5094243;28;20228;-76
2023/12/13 11:32:11;;;;;;;1.20;0.63;;;;;;;10.35;100.00;96441.69;5094418;28;20284;-76